Auburn, NY

5:19 PM EDT on September 02, 2014 (GMT -0400)
Green Hill Farm | Change Station
CLOSE
Current Station
Personal Weather Station
Location: Scipio Center, NY
Elevation: 968 ft
Nearby Weather Stations
Active Advisory: Severe Thunderstorm Watch

Elev 968 ft 42.82 °N, 76.59 °W | Updated 4 minutes ago

Overcast
Overcast
74.4 °F
Feels Like 74 °F
N
0.0
Wind Variable Wind from North
Gusts 0.0 mph

Today
High -- | Low -- °F
--% Chance of Precip.
Yesterday
High -- | Low -- °F
Precip. -- in
6:31 AM 7:39 PM
First Quarter, 55% visible
Pressure 29.75 in
Visibility 10.0 miles
Clouds Scattered Clouds 4700 ft
Mostly Cloudy 7000 ft
Mostly Cloudy 9500 ft
Overcast 13000 ft
Heat Index 74 °F
Dew Point 69 °F
Humidity 84%
Rainfall 0.00 in
Snow Depth Not available.
UV 1 out of 12
Pollen 5.60 out of 12
Ozone Good
PM2.5 Good
Flu Activity Not available.
METAR KSYR 022054Z 32009KT 10SM -RA SCT047 BKN070 BKN095 OVC130 24/19 A2977 RMK AO2 WSHFT 2028 RAB50 SLP073 TCU DSNT E P0000 60000 T02440194 55017

More Conditions Fewer Conditions

Pressure 29.75 in
Visibility 10.0 miles
Clouds Scattered Clouds 4700 ft
Mostly Cloudy 7000 ft
Mostly Cloudy 9500 ft
Overcast 13000 ft
Heat Index 74 °F
Dew Point 69 °F
Humidity 84%
Rainfall 0.00 in
Snow Depth Not available.
UV 1 out of 12
Pollen 5.60 out of 12
Ozone Good
PM2.5 Good
Flu Activity Not available.
METAR KSYR 022054Z 32009KT 10SM -RA SCT047 BKN070 BKN095 OVC130 24/19 A2977 RMK AO2 WSHFT 2028 RAB50 SLP073 TCU DSNT E P0000 60000 T02440194 55017

More Conditions Fewer Conditions

10-Day Weather Forecast

Almanac

Astronomy

Sep. 02, 2014 Rise Set
Actual Time 6:31 AM EDT 7:39 PM EDT
Civil Twilight 6:02 AM EDT 8:08 PM EDT
Nautical Twilight 5:27 AM EDT 8:42 PM EDT
Astronomical Twilight 4:51 AM EDT 9:19 PM EDT
Moon 2:24 PM EDT No Moon Set
Length of Visible Light 14h 05m
Length of Day
13h 07m
Tomorrow will be 2m 49s shorter.
First Quarter, 55% of the Moon is Illuminated
Today
First Quarter
Sep 8
Full
Sep 15
Last Quarter
Sep 24
New
Oct 1
First Quarter

Today's Extremes

State Highs State Lows

Community

WunderPhotos

Upload Photos

1,749,769 photos uploaded!

Nearby

Air Quality

  Air Quality AQ Index Pollutant
Yesterday Good
PM2.5
Yesterday Good
OZONE
Current Good
PM2.5
Current Good
OZONE
Tuesday Good
PM2.5
Tuesday Good
OZONE
Wednesday Good
PM2.5

Snow Depth

Station Depth Elevation
No new snow has been reported.

Earthquake Activity

City Distance Mag. Time & Date
No recent earthquake activity has been reported nearby.
Minimum magnitude displayed is 2.5.

Coastal Water Temperatures

Place Temperature
No Stations Reporting

Nearby Weather Stations